Terminal Aerodrome Forecast
Issued by NWS

Home | Current Version | Previous Version | Text Only | Print | Product List | Glossary On
Versions: 1 2 3 4 5 6 7 8 9 10 11 12 13 14 15 16 17
230
FTUS45 KTFX 271129
TAFCTB
TAF
KCTB 271129Z 2712/2812 24009KT P6SM SKC
     FM271900 26015G25KT P6SM FEW080
     FM272300 31011G22KT P6SM SCT070
     FM280300 35011KT P6SM SCT040 BKN070=

USA.gov is the U.S. government's official web portal to all federal, state and local government web resources and services.